createdAt,value
2024-01-05T00:02:12.911Z,99.90
2024-01-05T00:04:40.866Z,99.90
2024-01-05T00:07:10.294Z,99.90
2024-01-05T00:09:37.497Z,99.90
2024-01-05T00:12:06.990Z,99.90
2024-01-05T00:14:38.144Z,99.90
2024-01-05T00:17:04.875Z,99.90
2024-01-05T00:19:31.776Z,99.90
2024-01-05T00:21:59.108Z,99.90
2024-01-05T00:24:25.785Z,99.90
2024-01-05T00:26:52.558Z,99.90
2024-01-05T00:29:19.276Z,99.90
2024-01-05T00:31:45.917Z,99.90
2024-01-05T00:34:12.711Z,99.90
2024-01-05T00:36:39.493Z,99.90
2024-01-05T00:39:06.871Z,99.90
2024-01-05T00:41:33.512Z,99.90
2024-01-05T00:44:00.554Z,99.90
2024-01-05T00:46:27.481Z,99.90
2024-01-05T00:48:54.290Z,99.90
2024-01-05T00:51:20.991Z,99.90
2024-01-05T00:53:48.338Z,99.90
2024-01-05T00:56:15.158Z,99.90
2024-01-05T00:58:41.797Z,99.90
2024-01-05T01:01:09.969Z,99.90
2024-01-05T01:03:37.153Z,99.90
2024-01-05T01:06:04.456Z,99.90
2024-01-05T01:08:31.180Z,99.90
2024-01-05T01:10:57.879Z,99.90
2024-01-05T01:13:24.654Z,99.90
2024-01-05T01:15:51.757Z,99.90
2024-01-05T01:18:18.567Z,99.90
2024-01-05T01:20:45.478Z,99.90
2024-01-05T01:23:12.188Z,99.90
2024-01-05T01:25:39.592Z,99.90
2024-01-05T01:28:06.368Z,99.90
2024-01-05T01:30:33.161Z,99.90
2024-01-05T01:33:00.046Z,99.90
2024-01-05T01:35:26.802Z,99.90
2024-01-05T01:37:53.555Z,99.90
2024-01-05T01:40:20.268Z,99.90
2024-01-05T01:42:47.367Z,99.90
2024-01-05T01:45:14.679Z,99.90
2024-01-05T01:47:42.051Z,99.90
2024-01-05T01:50:10.081Z,99.90
2024-01-05T01:52:39.226Z,99.90
2024-01-05T01:55:07.988Z,99.90
2024-01-05T01:57:35.500Z,99.90
2024-01-05T02:00:02.486Z,99.90
2024-01-05T02:02:33.476Z,99.90
2024-01-05T02:05:00.926Z,99.90
2024-01-05T02:07:27.655Z,99.90
2024-01-05T02:09:54.308Z,99.90
2024-01-05T02:12:21.173Z,99.90
2024-01-05T02:14:47.853Z,99.90
2024-01-05T02:17:34.690Z,99.90
2024-01-05T02:20:02.502Z,99.90
2024-01-05T02:22:30.454Z,99.90
2024-01-05T02:25:00.551Z,99.90
2024-01-05T02:27:27.869Z,99.90
2024-01-05T02:29:54.763Z,99.90
2024-01-05T02:32:21.635Z,99.90
2024-01-05T02:34:48.473Z,99.90
2024-01-05T02:37:15.232Z,99.90
2024-01-05T02:39:41.936Z,99.90
2024-01-05T02:42:09.234Z,99.90
2024-01-05T02:44:35.971Z,99.90
2024-01-05T02:47:02.849Z,99.90
2024-01-05T02:49:29.584Z,99.90
2024-01-05T02:51:56.271Z,99.90
2024-01-05T02:54:23.165Z,99.90
2024-01-05T02:56:51.509Z,99.90
2024-01-05T02:59:20.073Z,99.90
2024-01-05T03:01:49.468Z,99.90
2024-01-05T03:04:16.777Z,99.90
2024-01-05T03:06:43.754Z,99.90
2024-01-05T03:09:10.895Z,99.90
2024-01-05T03:11:40.556Z,99.90
2024-01-05T03:14:07.268Z,99.90
2024-01-05T03:16:34.401Z,99.90
2024-01-05T03:19:01.602Z,99.90
2024-01-05T03:21:28.456Z,99.90
2024-01-05T03:23:55.212Z,99.90
2024-01-05T03:26:22.587Z,99.90
2024-01-05T03:28:49.448Z,99.90
2024-01-05T03:31:16.297Z,99.90
2024-01-05T03:33:44.964Z,99.90
2024-01-05T03:36:11.927Z,99.90
2024-01-05T03:38:39.067Z,99.90
2024-01-05T03:41:05.748Z,99.90
2024-01-05T03:43:32.382Z,99.90
2024-01-05T03:45:59.286Z,99.90
2024-01-05T03:48:25.985Z,99.90
2024-01-05T03:50:52.693Z,99.90
2024-01-05T03:53:19.481Z,99.90
2024-01-05T03:55:46.186Z,99.90
2024-01-05T03:58:12.917Z,99.90
2024-01-05T04:00:39.800Z,99.90
2024-01-05T04:03:06.757Z,99.90
2024-01-05T04:05:33.605Z,99.90
2024-01-05T04:08:00.382Z,99.90
2024-01-05T04:10:27.277Z,99.90
2024-01-05T04:12:54.013Z,99.90
2024-01-05T04:15:21.212Z,99.90
2024-01-05T04:17:48.568Z,99.90
2024-01-05T04:20:15.401Z,99.90
2024-01-05T04:22:42.116Z,99.90
2024-01-05T04:25:08.935Z,99.90
2024-01-05T04:27:35.654Z,99.90
2024-01-05T04:30:02.517Z,99.90
2024-01-05T04:32:29.268Z,99.90
2024-01-05T04:34:55.939Z,99.90
2024-01-05T04:37:22.822Z,99.90
2024-01-05T04:39:50.321Z,99.90
2024-01-05T04:42:17.113Z,99.90
2024-01-05T04:44:43.816Z,99.90
2024-01-05T04:47:10.501Z,99.90
2024-01-05T04:49:37.363Z,99.90
2024-01-05T04:52:04.387Z,99.90
2024-01-05T04:54:31.165Z,99.90
2024-01-05T04:56:59.584Z,99.90
2024-01-05T04:59:26.650Z,99.90
2024-01-05T05:01:53.623Z,99.90
2024-01-05T05:04:20.269Z,99.90
2024-01-05T05:06:47.138Z,99.90
2024-01-05T05:09:14.669Z,99.90
2024-01-05T05:11:41.755Z,99.90
2024-01-05T05:14:08.583Z,99.90
2024-01-05T05:16:36.738Z,99.90
2024-01-05T05:19:03.643Z,99.90
2024-01-05T05:21:30.520Z,99.90
2024-01-05T05:23:57.300Z,99.90
2024-01-05T05:26:24.092Z,99.90
2024-01-05T05:28:50.812Z,99.90
2024-01-05T05:31:17.661Z,99.90
2024-01-05T05:33:44.509Z,99.90
2024-01-05T05:36:11.273Z,99.90
2024-01-05T05:38:38.010Z,99.90
2024-01-05T05:41:04.816Z,99.90
2024-01-05T05:43:31.541Z,99.90
2024-01-05T05:45:58.255Z,99.90
2024-01-05T05:48:25.263Z,99.90
2024-01-05T05:50:52.051Z,99.90
2024-01-05T05:53:18.822Z,99.90
2024-01-05T05:55:45.492Z,99.90
2024-01-05T05:58:12.248Z,99.90
2024-01-05T06:00:39.072Z,99.90
2024-01-05T06:03:07.657Z,99.90
2024-01-05T06:05:36.438Z,99.90
2024-01-05T06:08:03.287Z,99.90
2024-01-05T06:10:30.024Z,99.90
2024-01-05T06:12:56.689Z,99.90
2024-01-05T06:15:23.372Z,99.90
2024-01-05T06:17:50.167Z,99.90
2024-01-05T06:20:16.905Z,99.90
2024-01-05T06:22:43.618Z,99.90
2024-01-05T06:25:10.516Z,99.90
2024-01-05T06:27:39.335Z,99.90
2024-01-05T06:30:07.600Z,99.90
2024-01-05T06:32:34.499Z,99.90
2024-01-05T06:35:01.224Z,99.90
2024-01-05T06:37:28.786Z,99.90
2024-01-05T06:39:55.561Z,99.90
2024-01-05T06:42:23.292Z,99.90
2024-01-05T06:44:51.376Z,99.90
2024-01-05T06:47:18.054Z,99.90
2024-01-05T06:49:44.841Z,99.90
2024-01-05T06:52:11.568Z,99.90
2024-01-05T06:54:38.766Z,99.90
2024-01-05T06:57:08.097Z,99.90
2024-01-05T06:59:37.362Z,99.90
2024-01-05T07:02:04.882Z,99.90
2024-01-05T07:04:31.678Z,99.90
2024-01-05T07:06:58.567Z,99.90
2024-01-05T07:09:26.163Z,99.90
2024-01-05T07:11:53.282Z,99.90
2024-01-05T07:14:21.068Z,99.90
2024-01-05T07:16:49.589Z,99.90
2024-01-05T07:19:16.545Z,99.90
2024-01-05T07:21:46.884Z,99.90
2024-01-05T07:24:17.750Z,99.90
2024-01-05T07:26:44.642Z,99.90
2024-01-05T07:29:11.466Z,99.90
2024-01-05T07:31:38.300Z,99.90
2024-01-05T07:34:05.044Z,99.90
2024-01-05T07:36:32.259Z,99.90
2024-01-05T07:39:00.450Z,99.90
2024-01-05T07:41:28.194Z,99.90
2024-01-05T07:43:54.995Z,99.90
2024-01-05T07:46:26.532Z,99.90
2024-01-05T07:48:53.273Z,99.90
2024-01-05T07:51:20.623Z,99.90
2024-01-05T07:53:51.099Z,99.90
2024-01-05T07:56:18.496Z,99.90
2024-01-05T07:58:45.904Z,99.90
2024-01-05T08:01:19.748Z,99.90
2024-01-05T08:03:47.650Z,99.90
2024-01-05T08:06:18.664Z,99.90
2024-01-05T08:08:49.425Z,99.90
2024-01-05T08:11:16.933Z,99.90
2024-01-05T08:13:44.861Z,99.90
2024-01-05T08:16:11.777Z,99.90
2024-01-05T08:18:39.229Z,99.90
2024-01-05T08:21:06.468Z,99.90
2024-01-05T08:23:33.512Z,99.90
2024-01-05T08:26:00.891Z,99.90
2024-01-05T08:28:27.667Z,99.90
2024-01-05T08:30:57.624Z,99.90
2024-01-05T08:33:24.874Z,99.90
2024-01-05T08:35:51.820Z,99.90
2024-01-05T08:38:18.543Z,99.90
2024-01-05T08:40:46.156Z,99.90
2024-01-05T08:43:12.953Z,99.90
2024-01-05T08:45:39.875Z,99.90
2024-01-05T08:48:06.780Z,99.90
2024-01-05T08:50:36.419Z,99.90
2024-01-05T08:53:03.480Z,99.90
2024-01-05T08:55:30.471Z,99.90
2024-01-05T08:57:57.703Z,99.90
2024-01-05T09:00:26.086Z,99.90
2024-01-05T09:02:53.348Z,99.90
2024-01-05T09:05:20.380Z,99.90
2024-01-05T09:07:48.691Z,99.90
2024-01-05T09:10:15.642Z,99.90
2024-01-05T09:12:42.381Z,99.90
2024-01-05T09:15:09.852Z,99.90
2024-01-05T09:17:36.654Z,99.90
2024-01-05T09:20:04.787Z,99.90
2024-01-05T09:22:31.937Z,99.90
2024-01-05T09:24:58.726Z,99.90
2024-01-05T09:27:25.555Z,99.90
2024-01-05T09:29:52.275Z,99.90
2024-01-05T09:32:19.122Z,99.90
2024-01-05T09:34:45.942Z,99.90
2024-01-05T09:37:12.642Z,99.80
2024-01-05T09:39:39.516Z,99.90
2024-01-05T09:42:07.112Z,99.90
2024-01-05T09:44:34.067Z,99.40
2024-01-05T09:47:02.496Z,99.00
2024-01-05T09:49:34.632Z,97.90
2024-01-05T09:52:01.736Z,97.30
2024-01-05T09:54:28.496Z,98.00
2024-01-05T09:56:55.957Z,96.70
2024-01-05T09:59:23.759Z,96.20
2024-01-05T10:01:51.238Z,95.90
2024-01-05T10:04:20.296Z,96.80
2024-01-05T10:06:47.075Z,96.70
2024-01-05T10:09:13.871Z,95.60
2024-01-05T10:11:43.744Z,95.00
2024-01-05T10:14:13.250Z,95.40
2024-01-05T10:16:40.816Z,95.70
2024-01-05T10:19:21.874Z,96.10
2024-01-05T10:21:49.161Z,95.40
2024-01-05T10:24:30.819Z,95.90
2024-01-05T10:27:05.623Z,95.40
2024-01-05T10:29:37.593Z,95.70
2024-01-05T10:32:18.631Z,96.70
2024-01-05T10:34:49.841Z,96.10
2024-01-05T10:37:18.080Z,97.10
2024-01-05T10:39:53.301Z,96.70
2024-01-05T10:42:24.051Z,97.70
2024-01-05T10:44:52.752Z,97.30
2024-01-05T10:47:27.640Z,96.80
2024-01-05T10:49:57.084Z,97.30
2024-01-05T10:52:28.567Z,98.40
2024-01-05T10:54:55.577Z,97.90
2024-01-05T10:57:24.958Z,97.60
2024-01-05T10:59:56.889Z,97.30
2024-01-05T11:02:39.931Z,97.40
2024-01-05T11:05:09.897Z,97.90
2024-01-05T11:07:38.254Z,97.60
2024-01-05T11:10:43.924Z,97.40
2024-01-05T11:14:07.451Z,97.40
2024-01-05T11:16:56.832Z,97.60
2024-01-05T11:19:47.507Z,97.70
2024-01-05T11:22:20.292Z,97.20
2024-01-05T11:24:49.366Z,98.00
2024-01-05T11:27:35.801Z,97.70
2024-01-05T11:30:03.891Z,98.00
2024-01-05T11:32:37.710Z,97.60
2024-01-05T11:35:17.569Z,97.20
2024-01-05T11:37:45.164Z,97.60
2024-01-05T11:40:26.997Z,98.70
2024-01-05T11:42:54.466Z,97.00
2024-01-05T11:45:46.301Z,97.20
2024-01-05T11:48:39.695Z,97.10
2024-01-05T11:51:07.412Z,97.70
2024-01-05T11:53:34.190Z,97.40
2024-01-05T11:56:11.200Z,97.70
2024-01-05T11:58:44.108Z,97.40
2024-01-05T12:01:12.251Z,97.70
2024-01-05T12:03:40.375Z,98.10
2024-01-05T12:06:11.066Z,96.40
2024-01-05T12:08:39.613Z,96.30
2024-01-05T12:11:09.756Z,96.70
2024-01-05T12:13:38.248Z,96.10
2024-01-05T12:16:07.451Z,96.60
2024-01-05T12:18:43.149Z,96.70
2024-01-05T12:21:12.791Z,99.90
2024-01-05T12:23:39.758Z,95.70
2024-01-05T12:26:10.186Z,96.10
2024-01-05T12:28:41.170Z,95.90
2024-01-05T12:31:09.078Z,97.20
2024-01-05T12:33:38.634Z,97.00
2024-01-05T12:36:11.086Z,97.60
2024-01-05T12:38:38.288Z,97.20
2024-01-05T12:41:09.625Z,97.00
2024-01-05T12:43:44.810Z,97.00
2024-01-05T12:46:11.685Z,97.40
2024-01-05T12:48:39.094Z,98.10
2024-01-05T12:51:10.322Z,97.70
2024-01-05T12:53:37.398Z,97.80
2024-01-05T12:56:09.239Z,97.70
2024-01-05T12:58:43.016Z,97.90
2024-01-05T13:01:24.583Z,97.40
2024-01-05T13:03:56.386Z,96.90
2024-01-05T13:06:27.184Z,97.70
2024-01-05T13:08:54.310Z,97.00
2024-01-05T13:11:22.091Z,97.20
2024-01-05T13:13:50.323Z,97.00
2024-01-05T13:16:17.379Z,97.20
2024-01-05T13:18:44.234Z,97.10
2024-01-05T13:21:11.102Z,96.20
2024-01-05T13:23:41.259Z,96.20
2024-01-05T13:26:08.035Z,95.90
2024-01-05T13:28:38.199Z,95.60
2024-01-05T13:31:06.166Z,96.60
2024-01-05T13:33:34.240Z,96.70
2024-01-05T13:36:01.334Z,96.40
2024-01-05T13:38:28.350Z,96.70
2024-01-05T13:40:55.155Z,96.30
2024-01-05T13:43:24.013Z,96.50
2024-01-05T13:45:52.397Z,96.60
2024-01-05T13:48:19.284Z,96.70
2024-01-05T13:50:46.083Z,96.40
2024-01-05T13:53:14.957Z,96.40
2024-01-05T13:55:42.134Z,97.00
2024-01-05T13:58:09.143Z,96.90
2024-01-05T14:00:35.901Z,97.10
2024-01-05T14:03:02.778Z,96.70
2024-01-05T14:05:29.629Z,97.00
2024-01-05T14:07:56.543Z,97.20
2024-01-05T14:10:23.275Z,97.10
2024-01-05T14:12:49.930Z,97.20
2024-01-05T14:15:16.802Z,97.40
2024-01-05T14:17:43.668Z,97.30
2024-01-05T14:20:11.058Z,97.60
2024-01-05T14:22:37.955Z,97.80
2024-01-05T14:25:05.669Z,97.50
2024-01-05T14:27:32.423Z,97.70
2024-01-05T14:29:59.140Z,97.40
2024-01-05T14:32:25.920Z,98.20
2024-01-05T14:34:52.585Z,97.90
2024-01-05T14:37:19.997Z,97.50
2024-01-05T14:39:46.657Z,97.50
2024-01-05T14:42:13.794Z,98.10
2024-01-05T14:44:40.584Z,98.50
2024-01-05T14:47:07.346Z,98.20
2024-01-05T14:49:34.225Z,98.60
2024-01-05T14:52:01.241Z,98.30
2024-01-05T14:54:28.413Z,98.60
2024-01-05T14:56:55.961Z,98.50
2024-01-05T14:59:23.152Z,98.40
2024-01-05T15:01:50.044Z,98.20
2024-01-05T15:04:17.038Z,97.90
2024-01-05T15:06:43.978Z,98.00
2024-01-05T15:09:12.740Z,98.20
2024-01-05T15:11:39.423Z,98.30
2024-01-05T15:14:06.808Z,98.10
2024-01-05T15:16:42.636Z,98.10
2024-01-05T15:19:09.728Z,98.00
2024-01-05T15:21:36.802Z,97.50
2024-01-05T15:24:04.153Z,99.90
2024-01-05T15:26:31.090Z,95.30
2024-01-05T15:29:03.962Z,95.10
2024-01-05T15:31:30.880Z,95.90
2024-01-05T15:33:58.126Z,96.60
2024-01-05T15:36:25.737Z,97.10
2024-01-05T15:38:52.936Z,96.90
2024-01-05T15:41:20.604Z,97.20
2024-01-05T15:43:48.870Z,97.50
2024-01-05T15:46:17.661Z,97.30
2024-01-05T15:48:44.592Z,98.00
2024-01-05T15:51:20.412Z,97.70
2024-01-05T15:53:47.600Z,98.00
2024-01-05T15:56:17.300Z,98.10
2024-01-05T15:58:44.054Z,98.30
2024-01-05T16:01:12.636Z,98.50
2024-01-05T16:03:41.349Z,98.60
2024-01-05T16:06:12.285Z,98.00
2024-01-05T16:08:39.979Z,98.40
2024-01-05T16:11:06.697Z,98.40
2024-01-05T16:13:33.358Z,98.70
2024-01-05T16:16:20.411Z,98.40
2024-01-05T16:18:50.095Z,98.90
2024-01-05T16:21:27.795Z,98.80
2024-01-05T16:23:56.246Z,98.80
2024-01-05T16:26:24.229Z,98.60
2024-01-05T16:28:50.879Z,99.00
2024-01-05T16:31:18.238Z,98.80
2024-01-05T16:33:45.340Z,98.70
2024-01-05T16:36:13.447Z,98.50
2024-01-05T16:38:40.376Z,98.60
2024-01-05T16:41:09.760Z,98.60
2024-01-05T16:43:39.837Z,98.40
2024-01-05T16:46:06.647Z,98.10
2024-01-05T16:48:33.871Z,98.70
2024-01-05T16:51:01.081Z,98.00
2024-01-05T16:53:28.838Z,98.30
2024-01-05T16:55:56.802Z,99.00
2024-01-05T16:58:23.619Z,97.00
2024-01-05T17:00:50.577Z,97.60
2024-01-05T17:03:17.366Z,98.00
2024-01-05T17:05:45.543Z,98.00
2024-01-05T17:08:12.449Z,98.10
2024-01-05T17:10:39.102Z,98.30
2024-01-05T17:13:06.012Z,98.60
2024-01-05T17:15:32.905Z,98.40
2024-01-05T17:17:59.696Z,98.40
2024-01-05T17:20:26.747Z,98.40
2024-01-05T17:22:54.291Z,98.60
2024-01-05T17:25:20.947Z,98.50
2024-01-05T17:27:47.742Z,98.80
2024-01-05T17:30:16.373Z,98.90
2024-01-05T17:32:45.934Z,98.60
2024-01-05T17:35:12.698Z,98.90
2024-01-05T17:37:39.477Z,99.00
2024-01-05T17:40:06.540Z,99.10
2024-01-05T17:42:33.427Z,99.70
2024-01-05T17:45:00.161Z,99.30
2024-01-05T17:47:26.981Z,99.60
2024-01-05T17:49:53.859Z,99.50
2024-01-05T17:52:21.477Z,99.70
2024-01-05T17:54:48.352Z,99.90
2024-01-05T17:57:15.340Z,99.90
2024-01-05T17:59:42.130Z,99.90
2024-01-05T18:02:08.965Z,99.90
2024-01-05T18:04:35.668Z,99.90
2024-01-05T18:07:02.428Z,99.90
2024-01-05T18:09:29.230Z,99.90
2024-01-05T18:11:55.987Z,99.90
2024-01-05T18:14:23.130Z,99.90
2024-01-05T18:16:50.563Z,99.90
2024-01-05T18:19:17.565Z,99.90
2024-01-05T18:21:45.979Z,99.90
2024-01-05T18:24:13.603Z,99.90
2024-01-05T18:26:40.526Z,99.90
2024-01-05T18:29:16.845Z,99.90
2024-01-05T18:31:51.894Z,99.90
2024-01-05T18:34:22.893Z,99.90
2024-01-05T18:36:50.320Z,99.90
2024-01-05T18:39:17.056Z,99.90
2024-01-05T18:41:43.742Z,99.90
2024-01-05T18:44:14.433Z,99.90
2024-01-05T18:46:41.483Z,99.90
2024-01-05T18:49:08.965Z,99.90
2024-01-05T18:51:35.819Z,99.90
2024-01-05T18:54:04.842Z,99.90
2024-01-05T18:56:31.620Z,99.90
2024-01-05T18:58:58.269Z,99.90
2024-01-05T19:01:25.296Z,99.90
2024-01-05T19:03:52.515Z,99.90
2024-01-05T19:06:20.002Z,99.90
2024-01-05T19:08:46.698Z,99.90
2024-01-05T19:11:13.596Z,99.90
2024-01-05T19:13:40.417Z,99.90
2024-01-05T19:16:07.887Z,99.90
2024-01-05T19:18:35.424Z,99.90
2024-01-05T19:21:05.910Z,99.90
2024-01-05T19:23:32.651Z,99.90
2024-01-05T19:25:59.959Z,99.90
2024-01-05T19:28:27.680Z,99.90
2024-01-05T19:30:55.484Z,99.90
2024-01-05T19:33:22.910Z,99.90
2024-01-05T19:35:49.796Z,99.90
2024-01-05T19:38:16.631Z,99.90
2024-01-05T19:40:44.621Z,99.90
2024-01-05T19:43:14.557Z,99.90
2024-01-05T19:45:42.312Z,99.90
2024-01-05T19:48:09.724Z,99.90
2024-01-05T19:50:38.178Z,99.90
2024-01-05T19:53:06.743Z,99.90
2024-01-05T19:55:33.889Z,99.90
2024-01-05T19:58:01.325Z,99.90
2024-01-05T20:00:28.777Z,99.90
2024-01-05T20:02:55.735Z,99.90
2024-01-05T20:05:24.244Z,99.90
2024-01-05T20:07:52.048Z,99.90
2024-01-05T20:10:19.028Z,99.90
2024-01-05T20:12:46.879Z,99.90
2024-01-05T20:15:14.144Z,99.90
2024-01-05T20:17:40.919Z,99.90
2024-01-05T20:20:09.592Z,99.90
2024-01-05T20:22:41.192Z,99.90
2024-01-05T20:25:10.117Z,99.90
2024-01-05T20:27:41.077Z,99.90
2024-01-05T20:30:10.159Z,99.90
2024-01-05T20:32:37.428Z,99.90
2024-01-05T20:35:04.759Z,99.90
2024-01-05T20:37:31.450Z,99.90
2024-01-05T20:39:58.204Z,99.90
2024-01-05T20:42:25.014Z,99.90
2024-01-05T20:44:51.729Z,99.90
2024-01-05T20:47:18.415Z,99.90
2024-01-05T20:49:45.210Z,99.90
2024-01-05T20:52:11.951Z,99.90
2024-01-05T20:54:38.660Z,99.90
2024-01-05T20:57:05.617Z,99.90
2024-01-05T20:59:32.310Z,99.90
2024-01-05T21:01:58.966Z,99.90
2024-01-05T21:04:26.330Z,99.90
2024-01-05T21:06:53.699Z,99.90
2024-01-05T21:09:20.735Z,99.90
2024-01-05T21:11:47.673Z,99.90
2024-01-05T21:14:14.886Z,99.90
2024-01-05T21:16:42.371Z,99.90
2024-01-05T21:19:09.882Z,99.90
2024-01-05T21:21:43.727Z,99.90
2024-01-05T21:24:10.615Z,99.90
2024-01-05T21:26:41.807Z,99.90
2024-01-05T21:29:08.626Z,99.90
2024-01-05T21:31:36.179Z,99.90
2024-01-05T21:34:03.041Z,99.90
2024-01-05T21:36:29.853Z,99.90
2024-01-05T21:38:56.524Z,99.90
2024-01-05T21:41:24.126Z,99.90
2024-01-05T21:43:51.229Z,99.90
2024-01-05T21:46:17.945Z,99.90
2024-01-05T21:48:45.578Z,99.90
2024-01-05T21:51:14.944Z,99.90
2024-01-05T21:53:41.681Z,99.90
2024-01-05T21:56:08.366Z,99.90
2024-01-05T21:58:35.034Z,99.90
2024-01-05T22:01:01.790Z,99.90
2024-01-05T22:03:28.610Z,99.90
2024-01-05T22:05:55.403Z,99.90
2024-01-05T22:08:22.066Z,99.90
2024-01-05T22:10:51.212Z,99.90
2024-01-05T22:13:18.490Z,99.90
2024-01-05T22:15:45.273Z,99.90
2024-01-05T22:18:12.205Z,99.90
2024-01-05T22:20:39.205Z,99.90
2024-01-05T22:23:05.858Z,99.90
2024-01-05T22:25:32.670Z,99.90
2024-01-05T22:27:59.335Z,99.90
2024-01-05T22:30:26.068Z,99.90
2024-01-05T22:32:53.713Z,99.90
2024-01-05T22:35:20.853Z,99.90
2024-01-05T22:37:47.995Z,99.90
2024-01-05T22:40:15.619Z,99.90
2024-01-05T22:42:42.769Z,99.90
2024-01-05T22:45:11.428Z,99.90
2024-01-05T22:47:38.443Z,99.90
2024-01-05T22:50:05.771Z,99.90
2024-01-05T22:52:33.143Z,99.90
2024-01-05T22:54:59.832Z,99.90
2024-01-05T22:57:26.946Z,99.90
2024-01-05T22:59:53.686Z,99.90
2024-01-05T23:02:20.325Z,99.90
2024-01-05T23:04:47.677Z,99.90
2024-01-05T23:07:14.522Z,99.90
2024-01-05T23:09:41.286Z,99.90
2024-01-05T23:12:09.007Z,99.90
2024-01-05T23:14:35.767Z,99.90
2024-01-05T23:17:02.585Z,99.90
2024-01-05T23:19:29.947Z,99.90
2024-01-05T23:21:56.684Z,99.90
2024-01-05T23:24:23.392Z,99.90
2024-01-05T23:26:50.399Z,99.90
2024-01-05T23:29:17.035Z,99.90
2024-01-05T23:31:43.995Z,99.90
2024-01-05T23:34:16.372Z,99.90
2024-01-05T23:36:44.647Z,99.90
2024-01-05T23:39:11.571Z,99.90
2024-01-05T23:41:38.452Z,99.90
2024-01-05T23:44:05.275Z,99.90
2024-01-05T23:46:32.061Z,99.90
2024-01-05T23:48:58.904Z,99.90
2024-01-05T23:51:25.889Z,99.90
2024-01-05T23:53:52.640Z,99.90
2024-01-05T23:56:19.339Z,99.90
2024-01-05T23:58:46.106Z,99.90
